Time;durP1;ratioP1;P1;durP2;ratioP2;P2;SDS_P1;SDS_P2;PMS_P1;PMS_P2;Temp;Humidity;BMP_temperature;BMP_pressure;BME280_temperature;BME280_humidity;BME280_pressure;Samples;Min_cycle;Max_cycle;Signal;HPM_P1;HPM_P2
2022/08/07 00:02:57;;;;;;;;;;;16.10;99.70;;;;;;8461549;28;19928;-70
2022/08/07 00:06:59;;;;;;;;;;;16.00;99.70;;;;;;8459042;28;19923;-70
2022/08/07 00:11:03;;;;;;;;;;;16.00;99.80;;;;;;8458256;28;19932;-70
2022/08/07 00:15:05;;;;;;;;;;;15.90;99.80;;;;;;8458446;28;19924;-70
2022/08/07 00:19:07;;;;;;;;;;;15.90;99.80;;;;;;8441987;28;19928;-70
2022/08/07 00:23:09;;;;;;;;;;;15.80;99.80;;;;;;8438737;28;20429;-70
2022/08/07 00:27:10;;;;;;;;;;;15.80;99.90;;;;;;8452752;28;19931;-70
2022/08/07 00:31:12;;;;;;;;;;;15.70;99.90;;;;;;8460215;28;19924;-70
2022/08/07 00:35:17;;;;;;;;;;;15.70;99.90;;;;;;8456780;28;19931;-70
2022/08/07 00:39:19;;;;;;;;;;;15.60;99.90;;;;;;8416915;28;19970;-70
2022/08/07 00:43:20;;;;;;;;;;;15.60;99.90;;;;;;8465099;28;19931;-70
2022/08/07 00:47:42;;;;;;;;;;;15.50;99.90;;;;;;8465849;28;19967;-70
2022/08/07 00:52:07;;;;;;;;;;;15.50;99.90;;;;;;8444902;28;20386;-70
2022/08/07 00:56:11;;;;;;;;;;;15.40;99.90;;;;;;8465027;28;20267;-70
2022/08/07 01:00:14;;;;;;;;;;;15.40;99.90;;;;;;8453393;28;20002;-70
2022/08/07 01:04:16;;;;;;;;;;;15.40;99.90;;;;;;8464233;28;20359;-70
2022/08/07 01:08:25;;;;;;;;;;;15.30;99.90;;;;;;8460172;28;19942;-70
2022/08/07 01:12:27;;;;;;;;;;;15.20;99.90;;;;;;8465558;28;19924;-70
2022/08/07 01:16:31;;;;;;;;;;;15.20;99.90;;;;;;8441136;28;19923;-70
2022/08/07 01:20:39;;;;;;;;;;;15.10;99.90;;;;;;8464482;28;19931;-70
2022/08/07 01:24:43;;;;;;;;;;;15.10;99.90;;;;;;8464696;28;20019;-70
2022/08/07 01:28:49;;;;;;;;;;;15.00;99.90;;;;;;8439124;28;20343;-70
2022/08/07 01:32:51;;;;;;;;;;;15.00;99.90;;;;;;8465745;28;20459;-70
2022/08/07 01:36:53;;;;;;;;;;;15.00;99.90;;;;;;8427875;28;20380;-70
2022/08/07 01:40:59;;;;;;;;;;;14.90;99.90;;;;;;8445743;28;20034;-70
2022/08/07 01:45:02;;;;;;;;;;;14.90;99.90;;;;;;8460918;28;20362;-70
2022/08/07 01:49:04;;;;;;;;;;;14.80;99.90;;;;;;8463290;28;20275;-70
2022/08/07 01:53:06;;;;;;;;;;;14.80;99.90;;;;;;8463185;28;19924;-70
2022/08/07 01:57:12;;;;;;;;;;;14.70;99.90;;;;;;8449429;28;19962;-70
2022/08/07 02:01:23;;;;;;;;;;;14.70;99.90;;;;;;8464472;28;20035;-70
2022/08/07 02:05:48;;;;;;;;;;;14.60;99.90;;;;;;8448445;28;19971;-70
2022/08/07 02:10:00;;;;;;;;;;;14.60;99.90;;;;;;8460169;28;19928;-70
2022/08/07 02:14:02;;;;;;;;;;;14.60;99.90;;;;;;8463652;28;19931;-70
2022/08/07 02:18:05;;;;;;;;;;;14.50;99.90;;;;;;8461694;28;19923;-70
2022/08/07 02:22:08;;;;;;;;;;;14.50;99.90;;;;;;8462892;28;19926;-70
2022/08/07 02:26:10;;;;;;;;;;;14.50;99.90;;;;;;8462098;28;19928;-70
2022/08/07 02:30:32;;;;;;;;;;;14.40;99.90;;;;;;8437742;28;20354;-70
2022/08/07 02:34:35;;;;;;;;;;;14.40;99.90;;;;;;8461271;28;19931;-70
2022/08/07 02:38:38;;;;;;;;;;;14.40;99.90;;;;;;8432996;28;19923;-70
2022/08/07 02:42:40;;;;;;;;;;;14.40;99.90;;;;;;8462406;28;19928;-70
2022/08/07 02:46:42;;;;;;;;;;;14.30;99.90;;;;;;8460949;28;19931;-70
2022/08/07 02:50:49;;;;;;;;;;;14.30;99.90;;;;;;8439432;28;20282;-70
2022/08/07 02:54:51;;;;;;;;;;;14.20;99.90;;;;;;8460680;28;19927;-70
2022/08/07 02:58:53;;;;;;;;;;;14.20;99.90;;;;;;8461307;28;19931;-70
2022/08/07 03:02:56;;;;;;;;;;;14.20;99.90;;;;;;8434791;28;20343;-70
2022/08/07 03:06:58;;;;;;;;;;;14.20;99.90;;;;;;8459786;28;19934;-70
2022/08/07 03:11:04;;;;;;;;;;;14.10;99.90;;;;;;8461924;28;19924;-70
2022/08/07 03:15:06;;;;;;;;;;;14.10;99.90;;;;;;8459960;28;20378;-70
2022/08/07 03:19:08;;;;;;;;;;;14.00;99.90;;;;;;8461535;28;20383;-70
2022/08/07 03:23:10;;;;;;;;;;;14.00;99.90;;;;;;8443726;28;19934;-70
2022/08/07 03:27:20;;;;;;;;;;;14.00;99.90;;;;;;8431109;28;19927;-70
2022/08/07 03:31:32;;;;;;;;;;;14.00;99.90;;;;;;8458784;28;19924;-70
2022/08/07 03:35:45;;;;;;;;;;;14.00;99.90;;;;;;8453805;28;19970;-70
2022/08/07 03:39:51;;;;;;;;;;;13.90;99.90;;;;;;8439668;28;20371;-71
2022/08/07 03:44:08;;;;;;;;;;;13.90;99.90;;;;;;8461475;28;19963;-70
2022/08/07 03:48:09;;;;;;;;;;;13.90;99.90;;;;;;8460342;28;19924;-70
2022/08/07 03:52:12;;;;;;;;;;;13.80;99.90;;;;;;8460577;28;20413;-70
2022/08/07 03:56:20;;;;;;;;;;;13.70;99.90;;;;;;8459405;28;19924;-70
2022/08/07 04:00:35;;;;;;;;;;;13.70;99.90;;;;;;8433794;28;19924;-70
2022/08/07 04:04:37;;;;;;;;;;;13.70;99.90;;;;;;8459501;28;20005;-70
2022/08/07 04:18:39;;;;;;;;;;;13.60;99.90;;;;;;8455007;28;19922;-70
2022/08/07 04:23:00;;;;;;;;;;;13.60;99.90;;;;;;8467960;28;19930;-70
2022/08/07 04:27:03;;;;;;;;;;;13.50;99.90;;;;;;8465660;28;19924;-70
2022/08/07 04:31:05;;;;;;;;;;;13.50;99.90;;;;;;8460839;28;19924;-70
2022/08/07 04:35:07;;;;;;;;;;;13.60;99.90;;;;;;8465062;28;20426;-70
2022/08/07 04:39:11;;;;;;;;;;;13.60;99.90;;;;;;8443893;28;19924;-70
2022/08/07 04:43:16;;;;;;;;;;;13.60;99.90;;;;;;8467183;28;19924;-70
2022/08/07 04:47:22;;;;;;;;;;;13.60;99.90;;;;;;8464900;28;19924;-70
2022/08/07 04:51:31;;;;;;;;;;;13.60;99.90;;;;;;8466013;28;19923;-70
2022/08/07 04:55:45;;;;;;;;;;;13.70;99.90;;;;;;8464813;28;19928;-70
2022/08/07 05:00:09;;;;;;;;;;;13.70;99.90;;;;;;8454274;28;19923;-70
2022/08/07 05:04:30;;;;;;;;;;;13.70;99.90;;;;;;8464867;28;20355;-70
2022/08/07 05:08:39;;;;;;;;;;;13.80;99.90;;;;;;8431242;28;19923;-70
2022/08/07 05:13:05;;;;;;;;;;;13.90;99.90;;;;;;8465667;28;20015;-70
2022/08/07 05:17:27;;;;;;;;;;;14.00;99.90;;;;;;8456337;28;19979;-70
2022/08/07 05:21:52;;;;;;;;;;;14.00;99.90;;;;;;8465130;28;20023;-70
2022/08/07 05:26:02;;;;;;;;;;;14.10;99.90;;;;;;8464068;28;20378;-70
2022/08/07 05:30:15;;;;;;;;;;;14.20;99.90;;;;;;8448709;28;19930;-70
2022/08/07 05:34:17;;;;;;;;;;;14.20;99.90;;;;;;8463815;28;19930;-70
2022/08/07 05:38:20;;;;;;;;;;;14.30;99.90;;;;;;8425128;28;19924;-70
2022/08/07 05:42:43;;;;;;;;;;;14.40;99.90;;;;;;8465449;28;19923;-70
2022/08/07 05:46:56;;;;;;;;;;;14.50;99.90;;;;;;8463454;28;19923;-70
2022/08/07 05:56:02;;;;;;;;;;;14.70;99.90;;;;;;8388912;28;19924;-70
2022/08/07 06:00:07;;;;;;;;;;;14.90;99.90;;;;;;8389385;28;19924;-69
2022/08/07 06:04:09;;;;;;;;;;;14.90;99.90;;;;;;8408510;28;20300;-70
2022/08/07 06:08:11;;;;;;;;;;;15.00;99.90;;;;;;8387002;28;19928;-70
2022/08/07 06:12:31;;;;;;;;;;;15.10;99.90;;;;;;8390152;28;19949;-70
2022/08/07 06:16:34;;;;;;;;;;;15.30;99.90;;;;;;8392333;28;19926;-70
2022/08/07 06:20:38;;;;;;;;;;;15.40;99.90;;;;;;8392569;28;19932;-70
2022/08/07 06:24:51;;;;;;;;;;;15.60;99.90;;;;;;8388476;28;20014;-70
2022/08/07 06:28:59;;;;;;;;;;;15.70;99.90;;;;;;8388110;28;20689;-70
2022/08/07 06:33:02;;;;;;;;;;;15.90;99.90;;;;;;8389078;28;19977;-70
2022/08/07 06:37:04;;;;;;;;;;;16.10;99.90;;;;;;8388449;28;20303;-70
2022/08/07 06:41:08;;;;;;;;;;;16.20;99.90;;;;;;8387839;28;19928;-70
2022/08/07 06:45:15;;;;;;;;;;;16.40;99.90;;;;;;8388818;28;19928;-70
2022/08/07 06:49:19;;;;;;;;;;;16.50;99.90;;;;;;8390182;28;20272;-70
2022/08/07 06:53:21;;;;;;;;;;;16.70;99.90;;;;;;8388093;28;20387;-70
2022/08/07 06:57:44;;;;;;;;;;;16.80;99.90;;;;;;8387385;28;20364;-70
2022/08/07 07:01:52;;;;;;;;;;;17.00;99.90;;;;;;8403676;28;19928;-70
2022/08/07 07:05:54;;;;;;;;;;;17.10;99.90;;;;;;8382804;28;20371;-70
2022/08/07 07:10:06;;;;;;;;;;;17.20;99.90;;;;;;8389279;28;20252;-70
2022/08/07 07:14:09;;;;;;;;;;;17.20;99.90;;;;;;8388621;28;19932;-70
2022/08/07 07:18:27;;;;;;;;;;;17.40;99.90;;;;;;8387080;28;20299;-70
2022/08/07 07:22:48;;;;;;;;;;;17.50;99.90;;;;;;8393081;28;20017;-70
2022/08/07 07:27:12;;;;;;;;;;;17.60;99.90;;;;;;8390122;28;19960;-70
2022/08/07 07:31:19;;;;;;;;;;;17.70;99.90;;;;;;8390800;28;19931;-70
2022/08/07 07:35:22;;;;;;;;;;;17.70;99.90;;;;;;8386295;28;19931;-70
2022/08/07 07:44:12;;;;;;;;;;;17.80;99.90;;;;;;8393997;28;20019;-70
2022/08/07 07:48:23;;;;;;;;;;;17.90;99.90;;;;;;8390966;28;20011;-70
2022/08/07 07:52:37;;;;;;;;;;;18.00;99.90;;;;;;8395373;28;19928;-70
2022/08/07 07:56:39;;;;;;;;;;;18.10;99.90;;;;;;8393562;28;19929;-70
2022/08/07 08:00:41;;;;;;;;;;;18.10;99.90;;;;;;8392669;28;19928;-70
2022/08/07 08:04:43;;;;;;;;;;;18.30;99.90;;;;;;8389711;28;19932;-70
2022/08/07 08:08:45;;;;;;;;;;;18.40;99.90;;;;;;8398089;28;20020;-70
2022/08/07 08:12:49;;;;;;;;;;;18.40;99.90;;;;;;8393193;28;20049;-70
2022/08/07 08:17:00;;;;;;;;;;;18.50;99.90;;;;;;8393971;28;20376;-70
2022/08/07 08:30:19;;;;;;;;;;;18.70;99.90;;;;;;8395407;28;19925;-70
2022/08/07 08:34:21;;;;;;;;;;;18.80;99.90;;;;;;8391454;28;20007;-70
2022/08/07 08:38:31;;;;;;;;;;;18.80;99.90;;;;;;8394715;28;19928;-70
2022/08/07 08:42:42;;;;;;;;;;;18.90;99.90;;;;;;8393335;28;19924;-70
2022/08/07 08:47:02;;;;;;;;;;;18.90;99.90;;;;;;8374361;28;19924;-70
2022/08/07 08:51:16;;;;;;;;;;;19.00;99.90;;;;;;8392591;28;19935;-70
2022/08/07 08:55:23;;;;;;;;;;;19.00;99.90;;;;;;8390252;28;20299;-70
2022/08/07 09:00:05;;;;;;;;;;;19.10;99.90;;;;;;8393935;28;20419;-70
2022/08/07 09:04:17;;;;;;;;;;;19.10;99.90;;;;;;8387700;28;19928;-70
2022/08/07 09:08:38;;;;;;;;;;;19.10;99.90;;;;;;8393369;28;20402;-70
2022/08/07 09:12:45;;;;;;;;;;;19.20;99.90;;;;;;8392380;28;19928;-70
2022/08/07 09:16:54;;;;;;;;;;;19.20;99.90;;;;;;8393497;28;19959;-70
2022/08/07 09:21:05;;;;;;;;;;;19.30;99.90;;;;;;8408109;28;19925;-70
2022/08/07 09:25:11;;;;;;;;;;;19.40;99.90;;;;;;8391674;28;19939;-70
2022/08/07 09:29:36;;;;;;;;;;;19.50;99.90;;;;;;8392014;28;19924;-70
2022/08/07 09:34:30;;;;;;;;;;;19.50;99.90;;;;;;8389262;28;19928;-70
2022/08/07 09:38:44;;;;;;;;;;;19.60;99.90;;;;;;8364449;28;19928;-70
2022/08/07 09:43:09;;;;;;;;;;;19.60;99.90;;;;;;8392340;28;19928;-70
2022/08/07 09:47:16;;;;;;;;;;;19.70;99.90;;;;;;8391338;28;20288;-70
2022/08/07 09:51:49;;;;;;;;;;;19.70;99.90;;;;;;8390370;28;20363;-69
2022/08/07 09:56:24;;;;;;;;;;;19.80;99.90;;;;;;8391550;28;19976;-70
2022/08/07 10:00:58;;;;;;;;;;;19.80;99.90;;;;;;8392365;28;20388;-70
2022/08/07 10:05:18;;;;;;;;;;;19.90;99.90;;;;;;8383239;28;19932;-70
2022/08/07 10:09:48;;;;;;;;;;;20.00;99.90;;;;;;8391277;28;20443;-70
2022/08/07 10:14:05;;;;;;;;;;;20.10;99.90;;;;;;8388724;28;19924;-70
2022/08/07 10:18:20;;;;;;;;;;;20.30;99.90;;;;;;8387812;28;19932;-69
2022/08/07 10:22:41;;;;;;;;;;;20.30;99.90;;;;;;8389097;28;19955;-69
2022/08/07 10:26:46;;;;;;;;;;;20.40;99.90;;;;;;8388275;28;20338;-70
2022/08/07 10:31:02;;;;;;;;;;;20.40;99.90;;;;;;8391018;28;19936;-70
2022/08/07 10:35:25;;;;;;;;;;;20.50;99.90;;;;;;8388834;28;19931;-70
2022/08/07 10:39:53;;;;;;;;;;;20.60;99.90;;;;;;8389866;28;19939;-70
2022/08/07 10:44:04;;;;;;;;;;;20.70;99.90;;;;;;8387545;28;19925;-70
2022/08/07 10:48:13;;;;;;;;;;;20.80;99.90;;;;;;8389692;28;20423;-70
2022/08/07 10:52:20;;;;;;;;;;;20.80;99.90;;;;;;8390516;28;20344;-70
2022/08/07 10:56:26;;;;;;;;;;;20.90;99.90;;;;;;8370706;28;19925;-70
2022/08/07 11:00:35;;;;;;;;;;;20.90;99.90;;;;;;8389636;28;19928;-70
2022/08/07 11:05:02;;;;;;;;;;;21.00;99.90;;;;;;8391850;28;19982;-70
2022/08/07 11:09:11;;;;;;;;;;;21.00;99.90;;;;;;8390495;28;19931;-70
2022/08/07 11:13:31;;;;;;;;;;;21.10;99.90;;;;;;8388793;28;19924;-70
2022/08/07 11:17:57;;;;;;;;;;;21.10;99.90;;;;;;8388197;28;20359;-70
2022/08/07 11:22:07;;;;;;;;;;;21.20;99.90;;;;;;8388348;28;20337;-70
2022/08/07 11:26:30;;;;;;;;;;;21.30;99.90;;;;;;8386423;28;19924;-70
2022/08/07 11:30:35;;;;;;;;;;;21.30;99.90;;;;;;8389747;28;20008;-70
2022/08/07 11:34:42;;;;;;;;;;;21.40;99.90;;;;;;8387354;28;19924;-70
2022/08/07 11:39:03;;;;;;;;;;;21.60;99.90;;;;;;8387092;28;19956;-70
2022/08/07 11:43:21;;;;;;;;;;;21.70;99.90;;;;;;8388831;28;19928;-70
2022/08/07 11:47:40;;;;;;;;;;;21.80;99.90;;;;;;8388423;28;20244;-70
2022/08/07 11:52:23;;;;;;;;;;;21.90;99.90;;;;;;8387590;28;20291;-70
2022/08/07 11:56:46;;;;;;;;;;;21.90;99.90;;;;;;8387650;28;19938;-70
2022/08/07 12:00:53;;;;;;;;;;;22.00;99.90;;;;;;8386966;28;19928;-70
2022/08/07 12:05:22;;;;;;;;;;;22.00;99.90;;;;;;8371578;28;20328;-70
2022/08/07 12:09:41;;;;;;;;;;;22.00;99.90;;;;;;8387897;28;19929;-69
2022/08/07 12:13:49;;;;;;;;;;;22.00;99.90;;;;;;8385966;28;19934;-70
2022/08/07 12:18:09;;;;;;;;;;;22.10;99.90;;;;;;8386817;28;20015;-70
2022/08/07 12:22:18;;;;;;;;;;;22.20;99.90;;;;;;8390470;28;19934;-70
2022/08/07 12:36:47;;;;;;;;;;;22.50;99.90;;;;;;8387733;28;20006;-70
2022/08/07 12:40:50;;;;;;;;;;;22.40;99.90;;;;;;8397501;28;20019;-70
2022/08/07 12:44:53;;;;;;;;;;;22.50;99.90;;;;;;8395405;28;19925;-70
2022/08/07 12:49:07;;;;;;;;;;;22.50;99.90;;;;;;8393382;28;19924;-70
2022/08/07 12:53:10;;;;;;;;;;;22.60;99.90;;;;;;8392293;28;19932;-70
2022/08/07 12:57:21;;;;;;;;;;;22.70;99.90;;;;;;8392076;28;19931;-70
2022/08/07 13:01:28;;;;;;;;;;;22.70;99.90;;;;;;8391887;28;19925;-70
2022/08/07 13:05:38;;;;;;;;;;;22.80;99.90;;;;;;8395205;28;19924;-70
2022/08/07 13:10:09;;;;;;;;;;;22.90;99.90;;;;;;8391930;28;20240;-70
2022/08/07 13:14:45;;;;;;;;;;;22.80;99.90;;;;;;8390600;28;19924;-70
2022/08/07 13:18:56;;;;;;;;;;;22.70;99.90;;;;;;8392245;28;19944;-70
2022/08/07 13:23:04;;;;;;;;;;;22.70;99.90;;;;;;8393398;28;19935;-70
2022/08/07 13:27:47;;;;;;;;;;;22.70;99.90;;;;;;8394106;28;19928;-69
2022/08/07 13:32:13;;;;;;;;;;;22.70;99.90;;;;;;8390431;28;20392;-70
2022/08/07 13:36:39;;;;;;;;;;;22.90;99.90;;;;;;8390872;28;19928;-70
2022/08/07 13:40:50;;;;;;;;;;;23.00;99.90;;;;;;8406801;27;19925;-70
2022/08/07 13:44:53;;;;;;;;;;;23.20;99.90;;;;;;8393208;28;20421;-70
2022/08/07 13:49:15;;;;;;;;;;;23.30;99.90;;;;;;8390471;28;19942;-70
2022/08/07 13:53:39;;;;;;;;;;;23.40;99.90;;;;;;8390935;28;20251;-70
2022/08/07 13:58:59;;;;;;;;;;;23.40;99.90;;;;;;8392752;28;19924;-70
2022/08/07 14:02:32;;;;;;;;;;;23.50;99.90;;;;;;8395639;28;19936;-70
2022/08/07 14:06:47;;;;;;;;;;;23.60;99.90;;;;;;8396826;28;19967;-70
2022/08/07 14:10:51;;;;;;;;;;;23.60;99.90;;;;;;8393916;28;20315;-70
2022/08/07 14:15:24;;;;;;;;;;;23.60;99.90;;;;;;8403607;27;20052;-70
2022/08/07 14:19:34;;;;;;;;;;;23.50;99.90;;;;;;8387979;28;20276;-70
2022/08/07 14:23:58;;;;;;;;;;;23.50;99.90;;;;;;8393503;28;19932;-70
2022/08/07 14:28:04;;;;;;;;;;;23.50;99.90;;;;;;8393640;28;19966;-70
2022/08/07 14:32:13;;;;;;;;;;;23.50;99.90;;;;;;8395656;28;19932;-70
2022/08/07 14:36:16;;;;;;;;;;;23.50;99.90;;;;;;8392897;28;19935;-69
2022/08/07 14:45:23;;;;;;;;;;;23.70;99.90;;;;;;8394686;28;20335;-70
2022/08/07 14:49:29;;;;;;;;;;;23.70;99.90;;;;;;8395013;28;20287;-70
2022/08/07 14:53:51;;;;;;;;;;;23.70;99.90;;;;;;8391084;28;20441;-70
2022/08/07 14:58:14;;;;;;;;;;;23.70;99.90;;;;;;8390469;28;19963;-70
2022/08/07 15:02:36;;;;;;;;;;;23.60;99.90;;;;;;8390553;28;19971;-70
2022/08/07 15:06:41;;;;;;;;;;;23.50;99.90;;;;;;8374031;28;19992;-70
2022/08/07 15:11:06;;;;;;;;;;;23.50;99.90;;;;;;8393030;28;20034;-70
2022/08/07 15:15:10;;;;;;;;;;;23.50;99.90;;;;;;8385369;28;19928;-70
2022/08/07 15:19:25;;;;;;;;;;;23.40;99.90;;;;;;8392930;28;19924;-70
2022/08/07 15:23:48;;;;;;;;;;;23.30;99.90;;;;;;8391153;28;19924;-70
2022/08/07 15:28:10;;;;;;;;;;;23.30;99.90;;;;;;8386533;28;20047;-70
2022/08/07 15:32:32;;;;;;;;;;;23.30;99.90;;;;;;8391671;28;20157;-70
2022/08/07 15:36:40;;;;;;;;;;;23.20;99.90;;;;;;8393588;28;19938;-70
2022/08/07 15:41:10;;;;;;;;;;;23.30;99.90;;;;;;8391857;28;20015;-70
2022/08/07 15:45:27;;;;;;;;;;;23.50;99.90;;;;;;8387768;28;20393;-70
2022/08/07 15:49:51;;;;;;;;;;;23.70;99.90;;;;;;8387495;28;19983;-70
2022/08/07 15:54:06;;;;;;;;;;;23.90;99.90;;;;;;8388726;28;20022;-70
2022/08/07 15:58:14;;;;;;;;;;;24.10;99.90;;;;;;8387073;28;20256;-70
2022/08/07 16:02:24;;;;;;;;;;;24.40;99.90;;;;;;8390817;28;19925;-70
2022/08/07 16:06:49;;;;;;;;;;;24.70;99.90;;;;;;8386242;28;19925;-70
2022/08/07 16:11:00;;;;;;;;;;;24.80;99.90;;;;;;8380086;28;20306;-70
2022/08/07 16:15:06;;;;;;;;;;;24.90;99.90;;;;;;8389802;28;20660;-70
2022/08/07 16:19:07;;;;;;;;;;;24.80;99.90;;;;;;8394963;28;19948;-70
2022/08/07 16:23:22;;;;;;;;;;;24.80;99.90;;;;;;8395284;28;19931;-70
2022/08/07 16:27:49;;;;;;;;;;;24.80;99.90;;;;;;8391090;28;20361;-70
2022/08/07 16:32:09;;;;;;;;;;;25.00;99.90;;;;;;8374304;28;19935;-70
2022/08/07 16:36:37;;;;;;;;;;;25.20;99.90;;;;;;8394289;28;20405;-70
2022/08/07 16:41:01;;;;;;;;;;;25.40;99.90;;;;;;8393000;28;19963;-70
2022/08/07 16:45:10;;;;;;;;;;;25.60;99.90;;;;;;8359538;28;19932;-70
2022/08/07 16:49:47;;;;;;;;;;;25.80;99.90;;;;;;8386610;28;19924;-70
2022/08/07 16:54:19;;;;;;;;;;;25.80;99.90;;;;;;8379564;28;20842;-70
2022/08/07 16:58:24;;;;;;;;;;;25.70;99.90;;;;;;8388093;28;20552;-69
2022/08/07 17:02:38;;;;;;;;;;;25.60;99.90;;;;;;8382759;28;21219;-69
2022/08/07 17:06:55;;;;;;;;;;;25.60;99.90;;;;;;8391190;28;20051;-70
2022/08/07 17:11:08;;;;;;;;;;;25.60;99.90;;;;;;8390134;28;20010;-70
2022/08/07 17:15:13;;;;;;;;;;;25.70;99.90;;;;;;8376064;28;19928;-70
2022/08/07 17:19:32;;;;;;;;;;;25.80;99.90;;;;;;8389443;28;19935;-70
2022/08/07 17:23:58;;;;;;;;;;;25.90;99.90;;;;;;8387395;28;19956;-70
2022/08/07 17:28:12;;;;;;;;;;;25.80;99.90;;;;;;8378051;28;19935;-70
2022/08/07 17:32:20;;;;;;;;;;;25.60;99.90;;;;;;8388357;28;19933;-70
2022/08/07 17:36:31;;;;;;;;;;;25.40;99.70;;;;;;8386135;28;20339;-70
2022/08/07 17:40:57;;;;;;;;;;;25.20;99.50;;;;;;8391654;28;19924;-70
2022/08/07 17:45:03;;;;;;;;;;;25.10;99.30;;;;;;8391015;28;19925;-70
2022/08/07 17:49:08;;;;;;;;;;;24.90;99.20;;;;;;8388879;28;20310;-70
2022/08/07 17:53:28;;;;;;;;;;;24.70;99.00;;;;;;8387396;28;19967;-70
2022/08/07 17:58:02;;;;;;;;;;;24.50;98.80;;;;;;8387867;28;19970;-70
2022/08/07 18:02:05;;;;;;;;;;;24.30;98.90;;;;;;8373521;28;19934;-70
2022/08/07 18:06:09;;;;;;;;;;;24.10;98.50;;;;;;8369302;28;19928;-70
2022/08/07 18:10:36;;;;;;;;;;;24.00;98.50;;;;;;8370705;28;20016;-69
2022/08/07 18:14:59;;;;;;;;;;;23.80;98.40;;;;;;8372579;28;20110;-70
2022/08/07 18:19:19;;;;;;;;;;;23.70;98.20;;;;;;8379073;28;19928;-70
2022/08/07 18:23:59;;;;;;;;;;;23.60;98.20;;;;;;8375785;28;20369;-70
2022/08/07 18:28:07;;;;;;;;;;;23.50;98.10;;;;;;8378460;28;19963;-69
2022/08/07 18:32:31;;;;;;;;;;;23.40;98.10;;;;;;8385530;28;19932;-70
2022/08/07 18:36:59;;;;;;;;;;;23.30;98.10;;;;;;8384680;28;19931;-70
2022/08/07 18:41:10;;;;;;;;;;;23.20;98.10;;;;;;8375138;28;19970;-70
2022/08/07 18:45:19;;;;;;;;;;;23.10;98.00;;;;;;8387651;28;19928;-70
2022/08/07 18:49:41;;;;;;;;;;;23.00;98.00;;;;;;8381811;28;19929;-70
2022/08/07 18:54:13;;;;;;;;;;;23.00;98.00;;;;;;8391032;28;19964;-70
2022/08/07 18:58:37;;;;;;;;;;;22.90;97.90;;;;;;8380912;28;20357;-70
2022/08/07 19:02:57;;;;;;;;;;;22.80;97.90;;;;;;8378984;28;19932;-70
2022/08/07 19:07:13;;;;;;;;;;;22.70;97.90;;;;;;8378232;28;19974;-70
2022/08/07 19:11:21;;;;;;;;;;;22.60;97.90;;;;;;8384701;28;19925;-70
2022/08/07 19:15:42;;;;;;;;;;;22.50;97.80;;;;;;8376857;28;21415;-70
2022/08/07 19:20:13;;;;;;;;;;;22.40;97.80;;;;;;8381071;28;20273;-70
2022/08/07 19:24:42;;;;;;;;;;;22.40;97.80;;;;;;8381191;28;20317;-70
2022/08/07 19:28:48;;;;;;;;;;;22.30;97.80;;;;;;8376065;28;19932;-70
2022/08/07 19:33:11;;;;;;;;;;;22.20;97.80;;;;;;8377573;28;20019;-70
2022/08/07 19:37:17;;;;;;;;;;;22.10;97.90;;;;;;8371771;28;20018;-70
2022/08/07 19:41:32;;;;;;;;;;;22.10;97.90;;;;;;8383245;28;19951;-70
2022/08/07 19:45:40;;;;;;;;;;;22.00;97.90;;;;;;8379989;28;20035;-70
2022/08/07 19:50:05;;;;;;;;;;;22.00;98.00;;;;;;8373066;28;20367;-69
2022/08/07 19:54:26;;;;;;;;;;;21.90;98.10;;;;;;8384675;28;19962;-70
2022/08/07 19:58:36;;;;;;;;;;;21.70;98.20;;;;;;8372012;28;20378;-70
2022/08/07 20:02:47;;;;;;;;;;;21.60;98.30;;;;;;8370443;28;19924;-70
2022/08/07 20:06:53;;;;;;;;;;;21.60;98.60;;;;;;8379552;28;20360;-70
2022/08/07 20:10:57;;;;;;;;;;;21.50;98.30;;;;;;8364056;28;20328;-70
2022/08/07 20:15:04;;;;;;;;;;;21.40;98.30;;;;;;8365726;28;20027;-70
2022/08/07 20:19:20;;;;;;;;;;;21.30;98.40;;;;;;8389107;28;19925;-70
2022/08/07 20:23:22;;;;;;;;;;;21.30;98.40;;;;;;8382813;28;19972;-70
2022/08/07 20:27:44;;;;;;;;;;;21.20;98.40;;;;;;8386193;28;20067;-70
2022/08/07 20:31:48;;;;;;;;;;;21.20;98.50;;;;;;8385876;28;19982;-70
2022/08/07 20:35:51;;;;;;;;;;;21.10;98.50;;;;;;8382728;28;19925;-70
2022/08/07 20:40:07;;;;;;;;;;;21.00;98.50;;;;;;8385627;28;19928;-70
2022/08/07 20:54:29;;;;;;;;;;;20.70;98.70;;;;;;8385052;28;20371;-70
2022/08/07 20:58:34;;;;;;;;;;;20.50;98.70;;;;;;8382725;28;20346;-70
2022/08/07 21:02:56;;;;;;;;;;;20.40;98.70;;;;;;8406771;28;20381;-70
2022/08/07 21:07:00;;;;;;;;;;;20.40;98.80;;;;;;8422286;28;19925;-69
2022/08/07 21:11:15;;;;;;;;;;;20.20;98.80;;;;;;8387304;28;19924;-70
2022/08/07 21:15:17;;;;;;;;;;;20.10;98.90;;;;;;8439669;28;19927;-70
2022/08/07 21:19:23;;;;;;;;;;;20.00;98.90;;;;;;8418465;28;19931;-70
2022/08/07 21:23:37;;;;;;;;;;;20.00;99.00;;;;;;8439497;28;19923;-69
2022/08/07 21:28:02;;;;;;;;;;;19.90;99.00;;;;;;8418099;28;19932;-70
2022/08/07 21:32:15;;;;;;;;;;;19.90;99.10;;;;;;8412124;28;19932;-70
2022/08/07 21:36:40;;;;;;;;;;;19.80;99.10;;;;;;8434637;28;20001;-70
2022/08/07 21:40:41;;;;;;;;;;;19.70;99.20;;;;;;8437385;27;19947;-70
2022/08/07 21:44:55;;;;;;;;;;;19.60;99.20;;;;;;8409441;28;19924;-70
2022/08/07 21:49:05;;;;;;;;;;;19.50;99.20;;;;;;8417215;28;19940;-69
2022/08/07 21:53:17;;;;;;;;;;;19.50;99.30;;;;;;8425660;28;20338;-70
2022/08/07 21:57:48;;;;;;;;;;;19.40;99.30;;;;;;8422235;28;20306;-69
2022/08/07 22:02:02;;;;;;;;;;;19.30;99.30;;;;;;8368493;28;19930;-70
2022/08/07 22:06:18;;;;;;;;;;;19.20;99.30;;;;;;8415953;28;20375;-70
2022/08/07 22:10:33;;;;;;;;;;;19.10;99.40;;;;;;8428545;28;19935;-70
2022/08/07 22:14:39;;;;;;;;;;;19.00;99.40;;;;;;8403914;28;19932;-70
2022/08/07 22:19:02;;;;;;;;;;;19.00;99.50;;;;;;8396368;28;19967;-70
2022/08/07 22:23:15;;;;;;;;;;;18.90;99.50;;;;;;8403723;28;22709;-70
2022/08/07 22:27:19;;;;;;;;;;;18.80;99.50;;;;;;8405650;28;20303;-70
2022/08/07 22:36:35;;;;;;;;;;;18.60;99.60;;;;;;8411499;28;19974;-70
2022/08/07 22:40:51;;;;;;;;;;;18.50;99.60;;;;;;8413262;28;19931;-69
2022/08/07 22:44:55;;;;;;;;;;;18.50;99.60;;;;;;8395473;28;19932;-69
2022/08/07 22:49:17;;;;;;;;;;;18.40;99.70;;;;;;8424261;28;19924;-69
2022/08/07 22:53:25;;;;;;;;;;;18.30;99.70;;;;;;8421242;27;19955;-70
2022/08/07 22:58:00;;;;;;;;;;;18.30;99.80;;;;;;8398200;28;20015;-70
2022/08/07 23:02:11;;;;;;;;;;;18.20;99.80;;;;;;8405388;28;21289;-70
2022/08/07 23:06:25;;;;;;;;;;;18.10;99.80;;;;;;8404717;28;19948;-70
2022/08/07 23:10:45;;;;;;;;;;;18.00;99.80;;;;;;8391870;28;19928;-70
2022/08/07 23:14:50;;;;;;;;;;;18.00;99.90;;;;;;8410101;28;19925;-70
2022/08/07 23:23:36;;;;;;;;;;;17.90;99.90;;;;;;8405514;28;19932;-69
2022/08/07 23:27:57;;;;;;;;;;;17.80;99.90;;;;;;8410367;28;19960;-69
2022/08/07 23:32:27;;;;;;;;;;;17.70;99.90;;;;;;8412775;28;20037;-70
2022/08/07 23:37:08;;;;;;;;;;;17.70;99.90;;;;;;8410217;28;20011;-70
2022/08/07 23:41:31;;;;;;;;;;;17.60;99.90;;;;;;8406513;28;19959;-69
2022/08/07 23:45:40;;;;;;;;;;;17.60;99.90;;;;;;8385345;28;19928;-69
2022/08/07 23:50:05;;;;;;;;;;;17.50;99.90;;;;;;8419993;28;20003;-69
2022/08/07 23:54:29;;;;;;;;;;;17.50;99.90;;;;;;8412836;28;19924;-70
2022/08/07 23:59:10;;;;;;;;;;;17.40;99.90;;;;;;8402788;28;19936;-70
